Time;durP1;ratioP1;P1;durP2;ratioP2;P2;SDS_P1;SDS_P2;PMS_P1;PMS_P2;Temp;Humidity;BMP_temperature;BMP_pressure;BME280_temperature;BME280_humidity;BME280_pressure;Samples;Min_cycle;Max_cycle;Signal;HPM_P1;HPM_P2
2023/05/27 00:00:36;;;;;;;6.57;5.93;;;16.70;98.70;;;;;;5076144;28;20519;-78
2023/05/27 00:03:02;;;;;;;6.57;5.87;;;16.80;99.50;;;;;;5074597;28;20179;-79
2023/05/27 00:05:28;;;;;;;6.53;5.47;;;16.60;99.30;;;;;;5057654;28;20197;-78
2023/05/27 00:07:55;;;;;;;7.60;6.00;;;16.80;99.60;;;;;;5086868;28;20156;-77
2023/05/27 00:10:20;;;;;;;6.33;5.43;;;16.50;98.70;;;;;;5065275;28;20240;-78
2023/05/27 00:12:46;;;;;;;6.20;5.60;;;16.50;98.70;;;;;;5056588;28;20179;-78
2023/05/27 00:15:12;;;;;;;7.00;5.33;;;16.50;98.70;;;;;;5074671;28;20643;-81
2023/05/27 00:17:39;;;;;;;6.30;5.67;;;16.40;99.20;;;;;;5056348;28;20287;-79
2023/05/27 00:20:08;;;;;;;7.27;6.27;;;16.30;99.40;;;;;;5056237;28;20224;-79
2023/05/27 00:22:37;;;;;;;6.23;5.63;;;16.30;99.30;;;;;;5057249;28;20592;-81
2023/05/27 00:25:03;;;;;;;7.73;5.37;;;16.40;99.40;;;;;;5074773;28;20218;-80
2023/05/27 00:27:29;;;;;;;5.87;5.07;;;16.30;99.30;;;;;;5073582;28;20174;-80
2023/05/27 00:29:54;;;;;;;7.50;5.30;;;16.30;99.20;;;;;;5056137;28;20538;-77
2023/05/27 00:32:20;;;;;;;8.40;5.20;;;16.30;99.50;;;;;;5055959;28;20218;-78
2023/05/27 00:34:46;;;;;;;6.03;5.43;;;16.20;99.40;;;;;;5055820;28;20275;-78
2023/05/27 00:37:13;;;;;;;8.63;5.87;;;16.20;99.90;;;;;;5055821;28;20193;-80
2023/05/27 00:39:39;;;;;;;6.03;5.53;;;16.20;99.70;;;;;;5073478;28;20179;-77
2023/05/27 00:42:07;;;;;;;7.10;5.20;;;16.20;99.80;;;;;;5055512;28;20182;-78
2023/05/27 00:44:33;;;;;;;7.23;5.70;;;16.20;99.70;;;;;;5073724;28;20234;-79
2023/05/27 00:46:59;;;;;;;6.67;5.43;;;16.10;99.80;;;;;;5073773;28;20163;-80
2023/05/27 00:49:26;;;;;;;7.93;5.87;;;16.00;99.90;;;;;;5073809;28;20172;-78
2023/05/27 00:51:52;;;;;;;7.13;5.70;;;15.90;99.90;;;;;;5074750;28;20167;-79
2023/05/27 00:54:18;;;;;;;7.57;6.33;;;16.00;99.90;;;;;;5058258;28;20188;-78
2023/05/27 00:56:44;;;;;;;6.67;5.97;;;15.80;99.90;;;;;;5073705;28;20181;-80
2023/05/27 00:59:10;;;;;;;6.17;5.53;;;15.80;99.90;;;;;;5073499;28;20254;-79
2023/05/27 01:01:38;;;;;;;5.97;5.47;;;15.70;99.90;;;;;;5073349;28;20179;-79
2023/05/27 01:04:05;;;;;;;7.37;5.37;;;15.70;99.90;;;;;;5074939;28;20233;-78
2023/05/27 01:06:49;;;;;;;10.07;6.90;;;15.70;99.90;;;;;;5091171;28;20221;-79
2023/05/27 01:09:26;;;;;;;6.73;5.97;;;15.70;99.90;;;;;;5081545;28;20187;-78
2023/05/27 01:11:59;;;;;;;5.73;5.23;;;15.60;99.90;;;;;;5079057;28;20167;-80
2023/05/27 01:14:26;;;;;;;8.37;5.97;;;15.60;99.90;;;;;;5090151;28;20168;-79
2023/05/27 01:16:56;;;;;;;5.93;5.37;;;15.50;99.90;;;;;;5090160;28;20189;-79
2023/05/27 01:19:33;;;;;;;6.40;5.70;;;15.40;99.90;;;;;;5075508;28;20571;-82
2023/05/27 01:22:00;;;;;;;5.77;5.23;;;15.90;99.90;;;;;;5068473;28;20186;-79
2023/05/27 01:24:26;;;;;;;6.70;5.70;;;15.30;99.90;;;;;;5067380;28;20699;-78
2023/05/27 01:26:53;;;;;;;5.80;5.13;;;15.20;99.90;;;;;;5057364;28;20526;-79
2023/05/27 01:29:19;;;;;;;5.93;5.40;;;15.20;99.90;;;;;;5072880;28;20175;-80
2023/05/27 01:32:17;;;;;;;6.53;5.80;;;15.30;99.90;;;;;;5057290;28;20248;-78
2023/05/27 01:35:11;;;;;;;5.77;5.27;;;15.20;99.90;;;;;;5073065;28;20183;-78
2023/05/27 01:37:40;;;;;;;5.60;5.10;;;15.20;99.90;;;;;;5065803;28;20240;-79
2023/05/27 01:40:08;;;;;;;5.67;5.17;;;15.10;99.90;;;;;;5080852;28;20169;-79
2023/05/27 01:42:36;;;;;;;5.73;5.23;;;15.10;99.90;;;;;;5082456;28;20181;-81
2023/05/27 01:45:05;;;;;;;6.67;5.70;;;15.00;99.90;;;;;;5088752;28;20206;-80
2023/05/27 01:47:31;;;;;;;7.63;6.10;;;15.10;99.90;;;;;;5080166;28;20159;-79
2023/05/27 01:49:57;;;;;;;6.23;5.10;;;14.90;99.90;;;;;;5059502;28;20193;-78
2023/05/27 01:52:23;;;;;;;6.80;6.10;;;14.90;99.90;;;;;;5072611;28;20251;-78
2023/05/27 01:54:49;;;;;;;8.30;6.27;;;14.80;99.90;;;;;;5054668;28;20167;-78
2023/05/27 01:57:16;;;;;;;7.03;5.87;;;14.70;99.90;;;;;;5072532;28;20617;-77
2023/05/27 01:59:42;;;;;;;6.10;5.57;;;14.70;99.90;;;;;;5054869;28;20197;-78
2023/05/27 02:02:08;;;;;;;6.23;5.60;;;14.70;99.90;;;;;;5054315;28;20215;-78
2023/05/27 02:04:34;;;;;;;5.90;5.30;;;14.60;99.90;;;;;;5072509;28;20218;-78
2023/05/27 02:07:00;;;;;;;7.40;5.50;;;14.60;99.90;;;;;;5072742;28;20197;-78
2023/05/27 02:09:25;;;;;;;7.73;5.70;;;14.60;99.90;;;;;;5056204;28;20217;-80
2023/05/27 02:11:51;;;;;;;7.00;5.83;;;14.60;99.90;;;;;;5078811;28;20180;-78
2023/05/27 02:14:17;;;;;;;8.17;5.30;;;14.50;99.90;;;;;;5078457;28;20179;-79
2023/05/27 02:16:43;;;;;;;7.60;5.80;;;14.40;99.90;;;;;;5081898;28;20244;-79
2023/05/27 02:19:09;;;;;;;6.80;5.40;;;14.50;99.90;;;;;;5055368;28;20187;-77
2023/05/27 02:21:35;;;;;;;5.73;5.03;;;14.50;99.90;;;;;;5072620;28;20167;-78
2023/05/27 02:24:02;;;;;;;6.73;6.03;;;14.40;99.90;;;;;;5054431;28;20203;-77
2023/05/27 02:26:28;;;;;;;6.27;5.67;;;14.40;99.90;;;;;;5075577;28;20258;-77
2023/05/27 02:28:54;;;;;;;5.90;5.30;;;14.40;99.90;;;;;;5076306;28;20186;-78
2023/05/27 02:31:20;;;;;;;6.17;5.33;;;14.30;99.90;;;;;;5078107;28;20183;-77
2023/05/27 02:33:46;;;;;;;8.03;5.53;;;14.30;99.90;;;;;;5077588;28;20874;-77
2023/05/27 02:36:12;;;;;;;6.43;5.57;;;14.30;99.90;;;;;;5076649;28;20193;-80
2023/05/27 02:38:38;;;;;;;6.53;5.93;;;14.20;99.90;;;;;;5089145;28;20210;-80
2023/05/27 02:41:04;;;;;;;6.17;5.57;;;14.20;99.90;;;;;;5076802;28;20182;-79
2023/05/27 02:43:30;;;;;;;7.30;5.70;;;14.00;99.90;;;;;;5075942;28;20198;-78
2023/05/27 02:45:55;;;;;;;6.00;5.40;;;14.10;99.90;;;;;;5058010;28;20172;-78
2023/05/27 02:48:21;;;;;;;8.10;5.97;;;14.10;99.90;;;;;;5075980;28;20220;-80
2023/05/27 02:50:47;;;;;;;8.17;6.20;;;14.00;99.90;;;;;;5057877;28;20261;-77
2023/05/27 02:53:13;;;;;;;6.70;6.07;;;14.10;99.90;;;;;;5075882;28;20256;-79
2023/05/27 02:55:38;;;;;;;7.40;5.70;;;14.20;99.90;;;;;;5076211;28;20169;-76
2023/05/27 02:58:04;;;;;;;7.67;6.17;;;14.20;99.90;;;;;;5076283;28;20178;-79
2023/05/27 03:00:31;;;;;;;9.83;5.80;;;14.50;99.90;;;;;;5087871;28;20182;-79
2023/05/27 03:02:57;;;;;;;6.40;5.77;;;14.20;99.90;;;;;;5058635;28;20175;-78
2023/05/27 03:05:22;;;;;;;5.80;5.30;;;14.20;99.90;;;;;;5076403;28;20187;-78
2023/05/27 03:07:48;;;;;;;6.87;5.07;;;13.70;99.90;;;;;;5075962;28;20171;-78
2023/05/27 03:10:14;;;;;;;6.60;5.97;;;14.10;99.90;;;;;;5092410;28;20190;-78
2023/05/27 03:12:39;;;;;;;6.07;5.27;;;14.00;99.90;;;;;;5075127;28;20527;-78
2023/05/27 03:15:06;;;;;;;7.43;5.80;;;14.00;99.90;;;;;;5064022;28;20186;-79
2023/05/27 03:17:33;;;;;;;6.77;5.37;;;13.90;99.90;;;;;;5062285;28;20635;-79
2023/05/27 03:19:58;;;;;;;6.27;5.57;;;13.80;99.90;;;;;;5084330;28;20176;-79
2023/05/27 03:22:24;;;;;;;5.77;5.17;;;13.80;99.90;;;;;;5074415;28;20274;-76
2023/05/27 03:24:51;;;;;;;7.27;5.83;;;14.00;99.90;;;;;;5078146;28;20659;-78
2023/05/27 03:27:17;;;;;;;7.00;6.00;;;13.80;99.90;;;;;;5057935;28;20228;-78
2023/05/27 03:29:43;;;;;;;8.47;5.90;;;13.90;99.90;;;;;;5057393;28;20583;-78
2023/05/27 03:32:08;;;;;;;6.27;5.67;;;13.90;99.90;;;;;;5058553;28;20178;-77
2023/05/27 03:34:34;;;;;;;7.10;5.87;;;13.30;99.90;;;;;;5076572;28;20653;-77
2023/05/27 03:37:00;;;;;;;6.57;5.97;;;13.90;99.90;;;;;;5057059;28;20175;-80
2023/05/27 03:39:26;;;;;;;6.37;5.57;;;14.00;99.90;;;;;;5076257;28;20189;-77
2023/05/27 03:41:51;;;;;;;5.97;5.37;;;13.90;99.90;;;;;;5057709;28;20182;-79
2023/05/27 03:44:17;;;;;;;6.53;5.70;;;13.80;99.90;;;;;;5056308;28;20223;-78
2023/05/27 03:46:43;;;;;;;7.00;6.30;;;13.80;99.90;;;;;;5074651;28;20175;-81
2023/05/27 03:49:09;;;;;;;6.30;5.70;;;13.70;99.90;;;;;;5074505;28;20853;-79
2023/05/27 03:51:35;;;;;;;6.90;5.97;;;13.60;99.90;;;;;;5074911;28;20229;-81
2023/05/27 03:54:01;;;;;;;6.10;5.50;;;13.60;99.90;;;;;;5056543;28;20194;-79
2023/05/27 03:56:26;;;;;;;7.57;6.30;;;13.70;99.90;;;;;;5074411;28;20178;-78
2023/05/27 03:58:52;;;;;;;6.50;5.80;;;14.20;99.90;;;;;;5077315;28;20623;-80
2023/05/27 04:01:20;;;;;;;7.67;5.70;;;13.70;99.90;;;;;;5064118;28;20557;-78
2023/05/27 04:03:46;;;;;;;6.57;5.87;;;13.70;99.90;;;;;;5074716;28;20223;-77
2023/05/27 04:06:11;;;;;;;6.97;5.70;;;13.80;99.90;;;;;;5074803;28;20177;-77
2023/05/27 04:08:39;;;;;;;6.63;5.47;;;12.00;99.90;;;;;;5056752;28;20178;-77
2023/05/27 04:11:04;;;;;;;6.63;5.90;;;13.80;99.90;;;;;;5076107;28;20653;-79
2023/05/27 04:13:30;;;;;;;7.13;5.50;;;13.90;99.90;;;;;;5075022;28;20175;-77
2023/05/27 04:15:59;;;;;;;9.57;6.27;;;13.90;99.90;;;;;;5074501;28;20199;-79
2023/05/27 04:18:25;;;;;;;7.50;5.50;;;14.00;99.90;;;;;;5086177;28;20254;-79
2023/05/27 04:20:52;;;;;;;8.03;5.87;;;14.10;99.90;;;;;;5062168;28;20237;-80
2023/05/27 04:23:18;;;;;;;6.27;5.67;;;14.10;99.90;;;;;;5056774;28;20187;-78
2023/05/27 04:25:43;;;;;;;7.23;6.47;;;14.30;99.90;;;;;;5057284;28;20665;-79
2023/05/27 04:28:09;;;;;;;6.63;5.50;;;14.30;99.90;;;;;;5074498;28;20181;-78
2023/05/27 04:30:36;;;;;;;6.50;5.90;;;14.20;99.90;;;;;;5074990;28;20688;-78
2023/05/27 04:33:02;;;;;;;7.60;5.67;;;14.30;99.90;;;;;;5074791;28;20539;-77
2023/05/27 04:35:31;;;;;;;6.83;5.90;;;14.20;99.90;;;;;;5074397;28;20203;-79
2023/05/27 04:38:01;;;;;;;7.97;5.37;;;14.30;99.90;;;;;;5082095;28;20233;-80
2023/05/27 04:40:29;;;;;;;7.83;6.20;;;14.40;99.90;;;;;;5076786;28;20183;-79
2023/05/27 04:42:56;;;;;;;7.43;5.83;;;14.50;99.90;;;;;;5092804;28;20167;-79
2023/05/27 04:45:21;;;;;;;8.07;6.07;;;14.50;99.90;;;;;;5080727;28;20206;-78
2023/05/27 04:47:49;;;;;;;8.47;5.77;;;14.50;99.90;;;;;;5077271;28;20171;-81
2023/05/27 04:50:15;;;;;;;6.37;5.77;;;14.60;99.90;;;;;;5086553;28;20206;-79
2023/05/27 04:52:43;;;;;;;7.60;5.63;;;14.80;99.90;;;;;;5075518;28;20535;-80
2023/05/27 04:55:10;;;;;;;6.33;5.70;;;14.90;99.90;;;;;;5078451;28;20174;-78
2023/05/27 04:57:36;;;;;;;8.33;6.23;;;15.10;99.90;;;;;;5081737;28;20203;-79
2023/05/27 05:02:34;;;;;;;6.47;5.70;;;15.30;99.90;;;;;;5074813;28;20194;-77
2023/05/27 05:05:10;;;;;;;6.47;5.87;;;15.30;99.90;;;;;;5073435;28;20232;-78
2023/05/27 05:07:39;;;;;;;7.43;6.10;;;15.40;99.90;;;;;;5073498;28;20162;-79
2023/05/27 05:10:10;;;;;;;6.50;5.67;;;15.50;99.90;;;;;;5069856;28;20673;-80
2023/05/27 05:12:36;;;;;;;7.07;5.67;;;15.60;99.90;;;;;;5057624;28;20179;-80
2023/05/27 05:15:02;;;;;;;8.60;5.50;;;15.70;99.90;;;;;;5077437;28;20182;-79
2023/05/27 05:17:28;;;;;;;6.20;5.60;;;15.70;99.90;;;;;;5080257;28;20560;-78
2023/05/27 05:19:54;;;;;;;6.97;5.67;;;15.80;99.90;;;;;;5056253;28;20186;-79
2023/05/27 05:22:22;;;;;;;9.00;5.87;;;15.90;99.90;;;;;;5089454;28;20171;-81
2023/05/27 05:24:49;;;;;;;6.13;5.53;;;15.90;99.90;;;;;;5067875;28;20220;-78
2023/05/27 05:27:15;;;;;;;6.20;5.60;;;16.00;99.90;;;;;;5078194;28;20220;-80
2023/05/27 05:29:42;;;;;;;5.97;5.37;;;16.00;99.90;;;;;;5079356;28;20173;-79
2023/05/27 05:32:11;;;;;;;6.10;5.50;;;16.20;99.90;;;;;;5073105;28;20174;-79
2023/05/27 05:34:37;;;;;;;6.27;5.50;;;16.20;99.90;;;;;;5073640;28;20169;-78
2023/05/27 05:37:04;;;;;;;5.87;4.90;;;16.40;99.90;;;;;;5062833;28;20182;-78
2023/05/27 05:39:30;;;;;;;5.83;5.30;;;16.50;99.90;;;;;;5079529;28;20171;-79
2023/05/27 05:41:57;;;;;;;7.07;4.97;;;16.50;99.50;;;;;;5056335;28;20210;-79
2023/05/27 05:44:23;;;;;;;5.87;5.37;;;16.80;99.10;;;;;;5055129;28;20210;-78
2023/05/27 05:46:49;;;;;;;6.50;5.47;;;16.90;99.20;;;;;;5073206;28;20203;-78
2023/05/27 05:49:15;;;;;;;6.07;5.53;;;17.00;98.90;;;;;;5073567;28;20168;-79
2023/05/27 05:51:41;;;;;;;7.27;5.30;;;17.00;99.00;;;;;;5055843;28;20516;-78
2023/05/27 05:54:07;;;;;;;5.63;5.13;;;17.20;98.70;;;;;;5073423;28;20182;-78
2023/05/27 05:56:33;;;;;;;6.30;5.70;;;16.70;98.50;;;;;;5073136;28;20526;-79
2023/05/27 05:58:59;;;;;;;5.90;5.30;;;17.20;98.60;;;;;;5055205;28;20179;-78
2023/05/27 06:01:29;;;;;;;6.30;5.67;;;17.40;98.60;;;;;;5073561;28;20650;-79
2023/05/27 06:03:56;;;;;;;8.27;4.97;;;17.40;98.20;;;;;;5055055;28;20599;-79
2023/05/27 06:06:22;;;;;;;5.90;5.33;;;17.30;97.90;;;;;;5055322;28;20179;-79
2023/05/27 06:08:48;;;;;;;5.43;4.93;;;17.40;97.60;;;;;;5055203;28;20249;-80
2023/05/27 06:11:14;;;;;;;6.67;5.00;;;17.40;97.30;;;;;;5055113;28;20631;-79
2023/05/27 06:13:40;;;;;;;7.60;4.73;;;17.40;97.30;;;;;;5072816;28;20230;-79
2023/05/27 06:16:06;;;;;;;5.43;4.67;;;17.50;97.30;;;;;;5072573;28;20711;-79
2023/05/27 06:18:32;;;;;;;5.40;4.57;;;17.60;96.80;;;;;;5054939;28;20207;-80
2023/05/27 06:20:58;;;;;;;4.90;4.50;;;17.70;96.90;;;;;;5073356;28;20168;-81
2023/05/27 06:23:24;;;;;;;6.93;4.80;;;17.50;96.70;;;;;;5077781;28;20243;-81
2023/05/27 06:25:49;;;;;;;5.70;4.70;;;17.60;97.70;;;;;;5078951;28;20186;-79
2023/05/27 06:28:15;;;;;;;5.20;4.70;;;17.70;96.60;;;;;;5056138;28;20628;-78
2023/05/27 06:30:42;;;;;;;6.80;4.83;;;17.80;96.80;;;;;;5055482;28;20178;-78
2023/05/27 06:33:08;;;;;;;5.63;4.70;;;17.90;96.50;;;;;;5056285;28;20175;-80
2023/05/27 06:35:34;;;;;;;5.00;4.50;;;18.20;96.10;;;;;;5091520;28;20205;-79
2023/05/27 06:38:00;;;;;;;6.27;4.87;;;18.10;95.40;;;;;;5087663;28;20175;-80
2023/05/27 06:40:26;;;;;;;5.17;4.60;;;18.20;95.20;;;;;;5086860;28;20218;-79
2023/05/27 06:42:51;;;;;;;4.63;4.30;;;18.40;95.50;;;;;;5054748;28;20179;-80
2023/05/27 06:45:17;;;;;;;4.80;4.40;;;18.60;94.70;;;;;;5055754;28;20211;-79
2023/05/27 06:47:43;;;;;;;5.70;4.20;;;18.60;94.40;;;;;;5072253;28;20170;-80
2023/05/27 06:50:09;;;;;;;5.33;4.37;;;18.60;95.00;;;;;;5072441;28;20199;-78
2023/05/27 06:52:35;;;;;;;6.90;4.60;;;18.70;94.90;;;;;;5072695;28;20619;-80
2023/05/27 06:55:01;;;;;;;5.30;4.80;;;18.70;95.10;;;;;;5055231;28;20190;-79
2023/05/27 06:57:26;;;;;;;4.93;4.53;;;18.60;94.30;;;;;;5068008;28;20279;-78
2023/05/27 06:59:52;;;;;;;7.20;4.27;;;18.60;94.50;;;;;;5056570;28;20199;-78
2023/05/27 07:02:18;;;;;;;4.83;4.37;;;18.50;94.30;;;;;;5072647;28;20179;-77
2023/05/27 07:04:44;;;;;;;8.57;4.80;;;18.60;94.40;;;;;;5072456;28;20258;-79
2023/05/27 07:07:10;;;;;;;5.70;5.10;;;18.80;94.10;;;;;;5071808;28;20559;-79
2023/05/27 07:09:35;;;;;;;5.17;4.10;;;18.80;94.00;;;;;;5055572;28;20189;-79
2023/05/27 07:12:01;;;;;;;5.53;4.27;;;18.80;94.10;;;;;;5076755;28;20175;-79
2023/05/27 07:14:27;;;;;;;5.03;4.53;;;18.90;93.80;;;;;;5059694;28;20221;-79
2023/05/27 07:16:53;;;;;;;5.00;4.50;;;18.80;93.70;;;;;;5075161;28;20191;-79
2023/05/27 07:19:19;;;;;;;5.63;4.23;;;18.90;93.70;;;;;;5075589;28;20254;-80
2023/05/27 07:21:44;;;;;;;4.87;4.13;;;18.90;93.40;;;;;;5076455;28;20167;-79
2023/05/27 07:24:10;;;;;;;4.33;3.93;;;18.90;92.80;;;;;;5076086;28;20605;-80
2023/05/27 07:26:36;;;;;;;5.10;4.23;;;18.90;92.10;;;;;;5075760;28;20261;-79
2023/05/27 07:29:03;;;;;;;4.43;3.97;;;19.00;92.20;;;;;;5069597;28;20646;-79
2023/05/27 07:31:29;;;;;;;5.97;4.50;;;19.10;92.20;;;;;;5093231;28;20226;-80
2023/05/27 07:33:55;;;;;;;6.80;4.27;;;19.20;92.40;;;;;;5059581;28;20175;-79
2023/05/27 07:36:21;;;;;;;5.80;4.03;;;19.40;91.80;;;;;;5075260;28;20175;-79
2023/05/27 07:38:46;;;;;;;6.53;4.60;;;19.40;92.20;;;;;;5057096;28;20209;-80
2023/05/27 07:41:12;;;;;;;5.37;4.13;;;19.60;92.50;;;;;;5076074;28;20698;-81
2023/05/27 07:43:38;;;;;;;5.13;4.60;;;19.80;93.60;;;;;;5075703;28;20290;-80
2023/05/27 07:46:04;;;;;;;9.53;4.60;;;19.90;93.20;;;;;;5075064;28;20171;-80
2023/05/27 07:48:30;;;;;;;4.17;3.87;;;20.10;93.50;;;;;;5075000;28;20183;-79
2023/05/27 07:50:55;;;;;;;4.60;4.03;;;20.20;93.10;;;;;;5079540;28;20179;-78
2023/05/27 07:53:21;;;;;;;6.43;4.47;;;20.20;92.70;;;;;;5079979;28;20178;-81
2023/05/27 07:55:47;;;;;;;3.90;3.60;;;20.30;92.10;;;;;;5061157;28;20269;-80
2023/05/27 07:58:13;;;;;;;7.30;3.70;;;20.30;90.80;;;;;;5074951;28;20167;-82
2023/05/27 08:00:39;;;;;;;6.67;3.37;;;20.30;87.10;;;;;;5073888;28;20205;-81
2023/05/27 08:03:05;;;;;;;5.23;3.67;;;20.30;87.00;;;;;;5078591;28;20167;-79
2023/05/27 08:05:32;;;;;;;3.87;3.33;;;20.20;87.20;;;;;;5060632;28;20229;-79
2023/05/27 08:07:58;;;;;;;4.20;3.63;;;20.10;87.00;;;;;;5060138;28;20190;-79
2023/05/27 08:10:23;;;;;;;5.60;3.40;;;20.20;89.10;;;;;;5077690;28;20886;-79
2023/05/27 08:12:50;;;;;;;4.10;3.80;;;20.20;88.30;;;;;;5062269;28;20174;-82
2023/05/27 08:15:16;;;;;;;3.83;3.53;;;20.20;88.60;;;;;;5085151;28;20182;-80
2023/05/27 08:17:43;;;;;;;5.33;3.73;;;20.20;87.30;;;;;;5059668;28;20175;-80
2023/05/27 08:20:10;;;;;;;4.67;3.73;;;20.20;88.10;;;;;;5076358;28;20175;-78
2023/05/27 08:22:35;;;;;;;4.37;3.27;;;20.30;89.90;;;;;;5076259;28;20167;-80
2023/05/27 08:25:01;;;;;;;5.60;3.57;;;20.40;88.50;;;;;;5075939;28;20289;-80
2023/05/27 08:27:53;;;;;;;4.10;3.70;;;20.50;87.20;;;;;;5074759;28;20179;-80
2023/05/27 08:30:19;;;;;;;4.17;3.70;;;20.50;87.50;;;;;;5076786;28;20163;-80
2023/05/27 08:32:46;;;;;;;4.03;3.50;;;20.60;89.00;;;;;;5057314;28;20181;-80
2023/05/27 08:35:12;;;;;;;5.43;4.03;;;20.40;85.40;;;;;;5057063;28;20673;-81
2023/05/27 08:37:38;;;;;;;3.40;3.20;;;20.40;85.10;;;;;;5056992;28;20179;-80
2023/05/27 08:40:07;;;;;;;5.53;3.77;;;20.40;86.20;;;;;;5057125;28;20213;-79
2023/05/27 08:42:33;;;;;;;4.20;3.80;;;20.40;86.00;;;;;;5075283;28;20186;-79
2023/05/27 08:45:00;;;;;;;4.00;3.27;;;20.40;87.20;;;;;;5075011;28;20294;-80
2023/05/27 08:47:28;;;;;;;4.30;3.90;;;20.40;86.20;;;;;;5055679;28;20607;-82
2023/05/27 08:49:54;;;;;;;4.00;3.60;;;20.40;87.00;;;;;;5075097;28;20205;-79
2023/05/27 08:52:20;;;;;;;5.90;3.67;;;20.50;87.10;;;;;;5075276;28;20167;-80
2023/05/27 08:54:48;;;;;;;4.10;3.73;;;20.70;84.90;;;;;;5075152;28;20254;-80
2023/05/27 08:57:17;;;;;;;4.37;3.93;;;20.70;85.00;;;;;;5075370;28;20205;-81
2023/05/27 08:59:43;;;;;;;3.63;3.33;;;20.80;85.40;;;;;;5058498;28;20707;-81
2023/05/27 09:02:12;;;;;;;3.30;3.00;;;21.10;89.10;;;;;;5075882;28;20669;-79
2023/05/27 09:04:40;;;;;;;5.50;3.60;;;21.20;85.90;;;;;;5057526;28;20265;-80
2023/05/27 09:07:06;;;;;;;3.47;3.17;;;21.40;82.60;;;;;;5074901;28;20163;-81
2023/05/27 09:09:32;;;;;;;3.77;3.47;;;21.40;82.60;;;;;;5057649;28;20635;-80
2023/05/27 09:12:04;;;;;;;3.40;3.10;;;21.40;84.00;;;;;;5075369;28;20186;-79
2023/05/27 09:14:30;;;;;;;3.33;3.03;;;21.40;82.30;;;;;;5075311;28;20175;-80
2023/05/27 09:16:56;;;;;;;4.57;3.40;;;21.40;81.30;;;;;;5075967;28;20178;-80
2023/05/27 09:19:22;;;;;;;4.03;3.10;;;21.40;82.10;;;;;;5074792;28;20639;-80
2023/05/27 09:21:52;;;;;;;3.07;2.80;;;21.60;81.80;;;;;;5075815;28;20182;-80
2023/05/27 09:24:18;;;;;;;4.33;2.87;;;21.60;75.00;;;;;;5075476;28;20302;-81
2023/05/27 09:26:44;;;;;;;3.20;2.90;;;21.50;75.10;;;;;;5060077;28;20641;-80
2023/05/27 09:29:10;;;;;;;2.80;2.60;;;21.20;75.00;;;;;;5078337;28;20183;-79
2023/05/27 09:31:40;;;;;;;3.53;2.73;;;21.00;75.80;;;;;;5087272;28;20179;-80
2023/05/27 09:34:14;;;;;;;3.20;2.67;;;21.00;75.90;;;;;;5083523;28;20171;-80
2023/05/27 09:36:48;;;;;;;2.77;2.53;;;21.00;75.40;;;;;;5065293;28;20274;-78
2023/05/27 09:39:15;;;;;;;3.87;2.83;;;20.90;75.70;;;;;;5078972;28;20175;-80
2023/05/27 09:41:42;;;;;;;3.63;2.97;;;20.90;75.90;;;;;;5074623;28;20254;-81
2023/05/27 09:44:08;;;;;;;3.50;2.60;;;21.00;75.10;;;;;;5056620;28;20678;-80
2023/05/27 09:46:35;;;;;;;4.03;3.00;;;21.20;75.00;;;;;;5059498;28;20662;-83
2023/05/27 09:49:03;;;;;;;2.70;2.50;;;21.20;75.70;;;;;;5086874;28;20194;-81
2023/05/27 09:51:31;;;;;;;3.40;3.10;;;21.30;77.80;;;;;;5075594;28;20201;-79
2023/05/27 09:53:58;;;;;;;3.13;2.73;;;21.50;74.90;;;;;;5073173;28;20175;-80
2023/05/27 09:56:26;;;;;;;4.03;2.60;;;21.50;77.30;;;;;;5072676;28;20178;-81
2023/05/27 09:58:55;;;;;;;4.40;3.40;;;21.30;73.70;;;;;;5073595;28;20167;-81
2023/05/27 10:01:25;;;;;;;7.97;3.03;;;21.40;75.90;;;;;;5078028;28;20186;-82
2023/05/27 10:03:51;;;;;;;3.33;3.03;;;21.50;75.30;;;;;;5052878;28;20235;-82
2023/05/27 10:06:18;;;;;;;3.53;3.20;;;21.60;77.10;;;;;;5054594;28;20176;-82
2023/05/27 10:08:44;;;;;;;3.77;2.90;;;21.70;78.50;;;;;;5055163;28;20183;-83
2023/05/27 10:11:11;;;;;;;4.53;2.93;;;21.90;77.70;;;;;;5052852;28;20187;-80
2023/05/27 10:13:37;;;;;;;3.47;3.03;;;22.10;77.90;;;;;;5052073;28;20176;-80
2023/05/27 10:16:03;;;;;;;4.63;3.17;;;22.10;77.60;;;;;;5051161;28;20277;-81
2023/05/27 10:18:30;;;;;;;3.40;3.10;;;22.20;78.00;;;;;;5052569;28;20210;-81
2023/05/27 10:21:00;;;;;;;4.03;3.30;;;22.30;79.00;;;;;;5052602;28;20226;-80
2023/05/27 10:23:33;;;;;;;3.43;3.13;;;22.50;79.00;;;;;;5051399;28;20175;-81
2023/05/27 10:26:06;;;;;;;25.10;12.67;;;22.50;78.60;;;;;;5052381;28;20206;-82
2023/05/27 10:28:39;;;;;;;939.87;394.53;;;22.60;80.30;;;;;;5052837;28;20191;-82
2023/05/27 10:31:08;;;;;;;153.67;73.33;;;22.70;82.70;;;;;;5052713;28;20164;-81
2023/05/27 10:33:45;;;;;;;28.47;21.63;;;22.70;80.10;;;;;;5053314;28;20180;-80
2023/05/27 10:36:17;;;;;;;15.73;11.47;;;22.80;79.60;;;;;;5051446;28;20274;-81
2023/05/27 10:38:53;;;;;;;25.23;19.00;;;22.80;78.80;;;;;;5051388;28;20183;-82
2023/05/27 10:41:20;;;;;;;7.90;5.50;;;22.70;79.10;;;;;;5052395;28;20167;-81
2023/05/27 10:43:57;;;;;;;5.10;4.30;;;22.70;77.20;;;;;;5052876;28;20263;-82
2023/05/27 10:46:24;;;;;;;3.57;3.27;;;22.60;77.30;;;;;;5054444;28;20167;-83
2023/05/27 10:48:50;;;;;;;3.70;3.30;;;22.60;77.90;;;;;;5059045;28;20172;-82
2023/05/27 10:51:16;;;;;;;4.80;4.30;;;22.70;79.10;;;;;;5063771;28;20207;-81
2023/05/27 10:53:41;;;;;;;7.97;4.23;;;22.80;81.00;;;;;;5061335;28;20199;-81
2023/05/27 10:56:10;;;;;;;4.47;3.63;;;22.90;79.70;;;;;;5057568;28;20207;-83
2023/05/27 10:58:38;;;;;;;3.60;3.27;;;23.00;79.80;;;;;;5056241;28;20179;-81
2023/05/27 11:01:10;;;;;;;4.70;3.60;;;23.10;81.10;;;;;;5055944;28;20264;-80
2023/05/27 11:03:45;;;;;;;5.93;3.43;;;23.20;79.40;;;;;;5061711;28;20226;-82
2023/05/27 11:06:11;;;;;;;3.37;2.90;;;23.20;76.00;;;;;;5077892;28;20174;-81
2023/05/27 11:08:40;;;;;;;4.30;3.53;;;23.00;76.30;;;;;;5061575;28;20179;-81
2023/05/27 11:11:07;;;;;;;3.33;3.00;;;23.10;78.30;;;;;;5077713;28;20179;-82
2023/05/27 11:13:42;;;;;;;15.13;12.48;;;23.00;76.90;;;;;;5087069;28;20193;-80
2023/05/27 11:16:08;;;;;;;35.67;31.97;;;22.80;76.50;;;;;;5064571;28;20228;-78
2023/05/27 11:18:38;;;;;;;5.43;4.97;;;22.90;77.90;;;;;;5076570;28;20167;-78
2023/05/27 11:21:05;;;;;;;52.10;45.67;;;23.50;77.40;;;;;;5076834;28;20558;-80
2023/05/27 11:23:43;;;;;;;6.40;5.80;;;22.70;79.20;;;;;;5082425;28;20171;-80
2023/05/27 11:26:21;;;;;;;21.97;17.03;;;22.70;76.60;;;;;;5075409;28;20178;-79
2023/05/27 11:28:51;;;;;;;13.33;12.03;;;22.70;77.60;;;;;;5077478;28;20195;-83
2023/05/27 11:31:22;;;;;;;4.27;3.10;;;22.80;78.90;;;;;;5065513;28;20197;-80
2023/05/27 11:33:51;;;;;;;3.00;2.80;;;22.80;75.70;;;;;;5088959;28;20164;-81
2023/05/27 11:36:21;;;;;;;4.10;2.70;;;22.80;76.40;;;;;;5064686;28;20175;-79
2023/05/27 11:38:58;;;;;;;4.47;3.27;;;22.80;77.10;;;;;;5077813;28;20643;-82
2023/05/27 11:41:26;;;;;;;4.70;3.00;;;22.90;76.40;;;;;;5076057;28;20155;-80
2023/05/27 11:44:00;;;;;;;3.33;3.00;;;23.10;76.00;;;;;;5076063;28;20199;-81
2023/05/27 11:46:42;;;;;;;4.27;3.37;;;23.10;76.20;;;;;;5076599;28;20159;-83
2023/05/27 11:49:10;;;;;;;7.40;4.00;;;23.20;77.70;;;;;;5081719;28;20171;-82
2023/05/27 11:51:46;;;;;;;3.92;3.53;;;23.30;76.90;;;;;;5061818;28;20172;-79
2023/05/27 11:54:27;;;;;;;3.63;3.20;;;23.20;74.30;;;;;;5079138;28;20202;-81
2023/05/27 11:56:54;;;;;;;4.77;3.63;;;23.00;76.20;;;;;;5075099;28;20173;-82
2023/05/27 11:59:22;;;;;;;7.33;3.33;;;23.00;76.20;;;;;;5057994;28;20182;-81
2023/05/27 12:01:49;;;;;;;4.27;3.73;;;23.10;76.00;;;;;;5075035;28;20172;-79
2023/05/27 12:04:15;;;;;;;4.23;3.57;;;23.10;77.20;;;;;;5075117;28;20337;-81
2023/05/27 12:06:41;;;;;;;5.00;3.70;;;23.20;76.50;;;;;;5075380;28;20168;-81
2023/05/27 12:09:10;;;;;;;3.47;2.97;;;23.20;77.40;;;;;;5075443;28;20174;-80
2023/05/27 12:11:37;;;;;;;5.13;3.20;;;23.20;75.80;;;;;;5082002;28;20613;-82
2023/05/27 12:14:03;;;;;;;3.33;3.03;;;23.20;76.00;;;;;;5080178;28;20175;-80
2023/05/27 12:16:29;;;;;;;3.42;3.15;;;23.20;74.60;;;;;;5075005;28;20186;-83
2023/05/27 12:18:55;;;;;;;3.97;3.00;;;23.00;73.60;;;;;;5074890;28;20175;-81
2023/05/27 12:21:21;;;;;;;3.67;3.38;;;23.00;75.80;;;;;;5074878;28;20250;-80
2023/05/27 12:23:48;;;;;;;4.30;3.90;;;23.00;76.10;;;;;;5056329;28;20202;-81
2023/05/27 12:26:14;;;;;;;4.00;3.20;;;23.10;76.10;;;;;;5076289;28;20270;-80
2023/05/27 12:28:41;;;;;;;4.40;3.37;;;23.10;76.60;;;;;;5057431;28;20635;-80
2023/05/27 12:31:07;;;;;;;6.32;3.40;;;23.00;75.70;;;;;;5076061;28;20167;-81
2023/05/27 12:33:34;;;;;;;6.30;4.50;;;23.10;76.00;;;;;;5075286;28;20167;-80
2023/05/27 12:36:00;;;;;;;4.10;3.47;;;23.10;76.60;;;;;;5074582;28;20510;-79
2023/05/27 12:38:27;;;;;;;5.33;2.97;;;23.10;76.70;;;;;;5074810;28;20185;-80
2023/05/27 12:40:55;;;;;;;6.47;3.90;;;22.90;76.40;;;;;;5074239;28;20631;-80
2023/05/27 12:43:21;;;;;;;3.73;3.23;;;22.90;75.70;;;;;;5074021;28;20167;-78
2023/05/27 12:45:47;;;;;;;4.33;3.13;;;23.00;75.80;;;;;;5056303;28;20179;-82
2023/05/27 12:48:13;;;;;;;3.43;3.13;;;22.90;74.70;;;;;;5057143;28;20178;-80